createdAt,value
2018-11-21T00:00:32.857Z,27.47
2018-11-21T00:02:59.797Z,28.63
2018-11-21T00:05:26.745Z,25.63
2018-11-21T00:07:53.696Z,26.43
2018-11-21T00:10:20.636Z,29.47
2018-11-21T00:12:52.495Z,26.10
2018-11-21T00:15:19.414Z,27.30
2018-11-21T00:17:46.768Z,30.07
2018-11-21T00:20:13.664Z,30.43
2018-11-21T00:22:40.585Z,29.20
2018-11-21T00:25:07.715Z,29.70
2018-11-21T00:27:34.667Z,28.13
2018-11-21T00:30:01.903Z,27.90
2018-11-21T00:32:28.809Z,27.57
2018-11-21T00:34:55.795Z,26.13
2018-11-21T00:37:23.769Z,26.17
2018-11-21T00:39:51.532Z,27.37
2018-11-21T00:42:18.434Z,27.10
2018-11-21T00:44:45.664Z,30.57
2018-11-21T00:47:12.888Z,28.10
2018-11-21T00:49:39.864Z,26.53
2018-11-21T00:52:06.773Z,28.97
2018-11-21T00:54:33.914Z,30.10
2018-11-21T00:57:01.117Z,28.30
2018-11-21T00:59:28.041Z,28.27
2018-11-21T01:01:54.948Z,28.47
2018-11-21T01:04:21.860Z,30.77
2018-11-21T01:06:48.764Z,29.27
2018-11-21T01:09:15.787Z,26.67
2018-11-21T01:11:42.726Z,31.43
2018-11-21T01:14:10.225Z,29.87
2018-11-21T01:16:37.113Z,29.83
2018-11-21T01:19:04.388Z,27.17
2018-11-21T01:21:31.456Z,26.63
2018-11-21T01:23:58.354Z,28.93
2018-11-21T01:26:25.264Z,28.43
2018-11-21T01:28:52.534Z,29.27
2018-11-21T01:31:19.426Z,28.33
2018-11-21T01:33:46.343Z,27.27
2018-11-21T01:36:13.485Z,27.80
2018-11-21T01:38:40.403Z,29.90
2018-11-21T01:41:07.332Z,28.17
2018-11-21T01:43:34.226Z,28.53
2018-11-21T01:46:01.460Z,33.20
2018-11-21T01:48:28.675Z,28.37
2018-11-21T01:50:55.583Z,32.20
2018-11-21T01:53:22.468Z,30.57
2018-11-21T01:55:49.371Z,28.70
2018-11-21T01:58:16.258Z,29.83
2018-11-21T02:00:43.531Z,27.00
2018-11-21T02:03:10.755Z,29.53
2018-11-21T02:05:37.660Z,27.23
2018-11-21T02:08:04.780Z,26.10
2018-11-21T02:10:31.691Z,29.47
2018-11-21T02:12:58.614Z,26.90
2018-11-21T02:15:25.523Z,28.40
2018-11-21T02:17:52.407Z,29.83
2018-11-21T02:20:19.307Z,31.10
2018-11-21T02:22:46.197Z,31.30
2018-11-21T02:25:13.085Z,28.57
2018-11-21T02:27:39.992Z,32.30
2018-11-21T02:30:07.345Z,27.87
2018-11-21T02:32:34.250Z,29.10
2018-11-21T02:35:01.151Z,28.97
2018-11-21T02:37:28.052Z,26.90
2018-11-21T02:39:55.263Z,29.63
2018-11-21T02:42:22.168Z,27.53
2018-11-21T02:44:49.083Z,24.67
2018-11-21T02:47:15.987Z,28.70
2018-11-21T02:49:42.909Z,30.17
2018-11-21T02:52:09.790Z,28.07
2018-11-21T02:54:36.719Z,26.37
2018-11-21T02:57:16.619Z,29.20
2018-11-21T02:59:43.752Z,28.50
2018-11-21T03:02:11.213Z,28.30
2018-11-21T03:04:38.194Z,27.80
2018-11-21T03:07:05.296Z,31.10
2018-11-21T03:09:32.199Z,30.37
2018-11-21T03:11:59.106Z,29.87
2018-11-21T03:14:26.001Z,24.40
2018-11-21T03:16:52.948Z,27.50
2018-11-21T03:19:19.866Z,26.10
2018-11-21T03:21:46.821Z,26.33
2018-11-21T03:24:14.237Z,26.53
2018-11-21T03:26:41.446Z,26.07
2018-11-21T03:29:08.328Z,28.17
2018-11-21T03:31:35.230Z,28.50
2018-11-21T03:34:02.141Z,26.13
2018-11-21T03:36:29.039Z,32.23
2018-11-21T03:38:55.971Z,26.50
2018-11-21T03:41:23.209Z,23.33
2018-11-21T03:43:50.093Z,24.83
2018-11-21T03:46:17.004Z,24.93
2018-11-21T03:48:44.216Z,25.83
2018-11-21T03:51:11.553Z,24.87
2018-11-21T03:53:38.451Z,23.53
2018-11-21T03:56:05.341Z,28.33
2018-11-21T03:58:32.800Z,25.97
2018-11-21T04:00:59.760Z,27.57
2018-11-21T04:03:27.010Z,29.03
2018-11-21T04:05:53.930Z,30.13
2018-11-21T04:08:20.840Z,26.07
2018-11-21T04:10:47.749Z,26.07
2018-11-21T04:13:15.001Z,28.27
2018-11-21T04:15:41.899Z,29.50
2018-11-21T04:18:08.799Z,27.00
2018-11-21T04:20:35.742Z,24.73
2018-11-21T04:23:02.637Z,27.53
2018-11-21T04:25:29.539Z,27.07
2018-11-21T04:27:56.444Z,27.00
2018-11-21T04:30:23.333Z,26.17
2018-11-21T04:32:50.264Z,25.80
2018-11-21T04:35:17.495Z,27.97
2018-11-21T04:37:44.410Z,26.87
2018-11-21T04:40:11.320Z,24.97
2018-11-21T04:42:38.266Z,25.30
2018-11-21T04:45:06.459Z,25.23
2018-11-21T04:47:33.366Z,24.67
2018-11-21T04:50:00.261Z,28.13
2018-11-21T04:52:27.163Z,25.50
2018-11-21T04:54:54.052Z,25.77
2018-11-21T04:57:20.939Z,27.90
2018-11-21T04:59:47.843Z,26.43
2018-11-21T05:02:15.043Z,24.97
2018-11-21T05:04:42.059Z,25.77
2018-11-21T05:07:08.969Z,23.83
2018-11-21T05:09:36.156Z,24.30
2018-11-21T05:12:03.068Z,27.63
2018-11-21T05:14:29.976Z,28.60
2018-11-21T05:16:58.029Z,26.70
2018-11-21T05:19:23.852Z,28.57
2018-11-21T05:21:50.763Z,27.03
2018-11-21T05:24:17.927Z,28.57
2018-11-21T05:26:45.186Z,27.27
2018-11-21T05:29:12.795Z,26.37
2018-11-21T05:31:39.698Z,28.20
2018-11-21T05:34:06.857Z,26.10
2018-11-21T05:36:33.804Z,29.87
2018-11-21T05:39:00.773Z,25.40
2018-11-21T05:41:27.705Z,27.13
2018-11-21T05:43:55.215Z,28.30
2018-11-21T05:46:22.105Z,22.17
2018-11-21T05:48:49.346Z,28.27
2018-11-21T05:51:16.240Z,27.87
2018-11-21T05:53:43.147Z,28.90
2018-11-21T05:56:10.051Z,28.60
2018-11-21T05:58:37.242Z,27.00
2018-11-21T06:01:04.307Z,26.70
2018-11-21T06:03:31.193Z,28.90
2018-11-21T06:05:58.768Z,30.43
2018-11-21T06:08:25.681Z,30.40
2018-11-21T06:10:52.597Z,30.33
2018-11-21T06:13:19.523Z,32.33
2018-11-21T06:15:46.434Z,28.67
2018-11-21T06:18:13.336Z,32.23
2018-11-21T06:20:40.230Z,29.93
2018-11-21T06:23:07.204Z,33.33
2018-11-21T06:25:34.112Z,31.03
2018-11-21T06:28:01.063Z,32.30
2018-11-21T06:30:27.955Z,27.07
2018-11-21T06:32:54.856Z,25.30
2018-11-21T06:35:21.773Z,30.43
2018-11-21T06:37:48.718Z,30.27
2018-11-21T06:40:15.848Z,30.13
2018-11-21T06:42:57.616Z,33.23
2018-11-21T06:45:26.017Z,32.50
2018-11-21T06:47:53.033Z,28.53
2018-11-21T06:50:20.092Z,28.97
2018-11-21T06:52:47.006Z,26.97
2018-11-21T06:55:14.567Z,29.03
2018-11-21T06:57:41.481Z,27.87
2018-11-21T07:00:09.004Z,31.90
2018-11-21T07:02:36.557Z,26.80
2018-11-21T07:05:04.430Z,31.57
2018-11-21T07:07:31.352Z,31.50
2018-11-21T07:09:58.296Z,28.77
2018-11-21T07:12:25.244Z,33.50
2018-11-21T07:14:52.153Z,30.00
2018-11-21T07:17:19.056Z,29.83
2018-11-21T07:19:46.333Z,32.70
2018-11-21T07:22:13.262Z,30.27
2018-11-21T07:24:40.420Z,29.17
2018-11-21T07:27:07.364Z,30.37
2018-11-21T07:29:34.784Z,30.83
2018-11-21T07:32:01.209Z,29.87
2018-11-21T07:34:28.128Z,29.50
2018-11-21T07:36:55.055Z,28.73
2018-11-21T07:39:21.972Z,27.97
2018-11-21T07:41:48.921Z,27.37
2018-11-21T07:44:15.836Z,28.97
2018-11-21T07:46:42.800Z,27.50
2018-11-21T07:49:09.901Z,28.33
2018-11-21T07:51:36.821Z,27.37
2018-11-21T07:54:04.524Z,29.27
2018-11-21T07:57:16.584Z,30.20
2018-11-21T08:00:20.327Z,32.93
2018-11-21T08:02:47.386Z,30.33
2018-11-21T08:05:27.456Z,30.53
2018-11-21T08:08:13.973Z,31.83
2018-11-21T08:10:54.768Z,30.03
2018-11-21T08:13:39.743Z,28.63
2018-11-21T08:16:35.097Z,32.93
2018-11-21T08:19:20.520Z,29.50
2018-11-21T08:22:25.149Z,34.10
2018-11-21T08:25:11.477Z,31.17
2018-11-21T08:27:49.297Z,33.20
2018-11-21T08:30:16.510Z,37.10
2018-11-21T08:32:44.428Z,33.80
2018-11-21T08:35:10.483Z,34.43
2018-11-21T08:37:37.417Z,34.53
2018-11-21T08:40:04.437Z,37.63
2018-11-21T08:42:31.345Z,33.50
2018-11-21T08:44:58.262Z,28.97
2018-11-21T08:47:25.251Z,32.07
2018-11-21T08:49:52.184Z,33.90
2018-11-21T08:52:19.102Z,31.80
2018-11-21T08:54:45.996Z,33.50
2018-11-21T08:57:12.902Z,36.57
2018-11-21T08:59:39.818Z,33.40
2018-11-21T09:02:06.739Z,35.63
2018-11-21T09:04:33.940Z,35.10
2018-11-21T09:07:00.855Z,39.73
2018-11-21T09:09:27.733Z,36.83
2018-11-21T09:11:54.994Z,32.77
2018-11-21T09:14:21.928Z,36.70
2018-11-21T09:16:48.900Z,36.60
2018-11-21T09:19:15.867Z,34.13
2018-11-21T09:21:42.801Z,33.60
2018-11-21T09:24:10.021Z,38.87
2018-11-21T09:26:36.955Z,34.17
2018-11-21T09:29:04.051Z,31.73
2018-11-21T09:31:30.945Z,31.43
2018-11-21T09:33:57.853Z,37.40
2018-11-21T09:36:25.112Z,35.20
2018-11-21T09:38:52.026Z,33.10
2018-11-21T09:41:19.227Z,35.13
2018-11-21T09:43:46.332Z,36.93
2018-11-21T09:46:17.189Z,37.90
2018-11-21T09:48:40.127Z,32.43
2018-11-21T09:51:07.024Z,37.03
2018-11-21T09:53:33.940Z,31.37
2018-11-21T09:56:00.852Z,33.13
2018-11-21T09:58:27.782Z,36.37
2018-11-21T10:01:31.444Z,37.90
2018-11-21T10:04:00.982Z,35.07
2018-11-21T10:06:28.853Z,35.13
2018-11-21T10:08:57.566Z,31.37
2018-11-21T10:11:24.476Z,33.73
2018-11-21T10:13:51.384Z,33.50
2018-11-21T10:16:18.291Z,32.53
2018-11-21T10:18:50.033Z,32.47
2018-11-21T10:21:22.212Z,36.77
2018-11-21T10:23:49.131Z,32.33
2018-11-21T10:26:16.370Z,32.80
2018-11-21T10:28:43.855Z,29.60
2018-11-21T10:31:11.663Z,28.07
2018-11-21T10:33:38.766Z,34.70
2018-11-21T10:36:05.678Z,29.70
2018-11-21T10:38:32.580Z,32.07
2018-11-21T10:40:59.521Z,32.07
2018-11-21T10:43:28.362Z,33.13
2018-11-21T10:45:53.659Z,30.73
2018-11-21T10:48:20.564Z,30.60
2018-11-21T10:50:47.508Z,29.60
2018-11-21T10:53:14.701Z,33.80
2018-11-21T10:55:42.335Z,29.77
2018-11-21T10:58:09.233Z,30.03
2018-11-21T11:00:54.859Z,34.33
2018-11-21T11:03:23.718Z,31.43
2018-11-21T11:06:00.809Z,31.17
2018-11-21T11:08:46.420Z,32.00
2018-11-21T11:11:31.441Z,28.17
2018-11-21T11:14:16.384Z,30.10
2018-11-21T11:17:01.917Z,28.80
2018-11-21T11:19:37.247Z,27.13
2018-11-21T11:22:16.578Z,28.10
2018-11-21T11:24:56.610Z,28.90
2018-11-21T11:27:41.714Z,30.63
2018-11-21T11:30:22.172Z,27.83
2018-11-21T11:32:58.207Z,31.63
2018-11-21T11:35:35.303Z,26.60
2018-11-21T11:38:11.805Z,25.90
2018-11-21T11:41:01.168Z,26.10
2018-11-21T11:43:46.682Z,26.43
2018-11-21T11:46:36.195Z,27.43
2018-11-21T11:49:31.423Z,24.73
2018-11-21T11:52:29.384Z,26.73
2018-11-21T11:55:18.437Z,28.03
2018-11-21T11:58:03.358Z,25.10
2018-11-21T12:00:52.860Z,25.20
2018-11-21T12:03:28.306Z,29.77
2018-11-21T12:06:14.634Z,28.73
2018-11-21T12:09:01.146Z,26.03
2018-11-21T12:11:53.789Z,29.13
2018-11-21T12:14:38.232Z,29.10
2018-11-21T12:17:37.103Z,26.27
2018-11-21T12:20:19.112Z,24.47
2018-11-21T12:23:08.743Z,28.60
2018-11-21T12:25:58.026Z,26.23
2018-11-21T12:29:02.566Z,27.83
2018-11-21T12:31:48.129Z,28.43
2018-11-21T12:34:41.914Z,27.70
2018-11-21T12:40:51.631Z,27.60
2018-11-21T12:43:41.014Z,29.30
2018-11-21T12:46:27.551Z,25.57
2018-11-21T12:49:17.041Z,31.00
2018-11-21T12:52:02.469Z,27.53
2018-11-21T12:54:48.016Z,30.73
2018-11-21T12:57:32.437Z,27.83
2018-11-21T13:00:24.798Z,28.40
2018-11-21T13:03:09.953Z,27.83
2018-11-21T13:05:56.507Z,25.73
2018-11-21T13:08:46.856Z,25.73
2018-11-21T13:11:32.510Z,24.53
2018-11-21T13:14:17.999Z,25.30
2018-11-21T13:17:03.236Z,25.27
2018-11-21T13:20:01.980Z,25.70
2018-11-21T13:22:47.654Z,26.13
2018-11-21T13:25:32.969Z,25.27
2018-11-21T13:28:18.993Z,23.50
2018-11-21T13:30:51.428Z,26.10
2018-11-21T13:33:30.321Z,27.73
2018-11-21T13:36:15.654Z,24.83
2018-11-21T13:39:14.189Z,30.97
2018-11-21T13:41:59.635Z,28.00
2018-11-21T13:44:50.709Z,25.70
2018-11-21T13:47:45.929Z,30.43
2018-11-21T13:50:34.261Z,26.27
2018-11-21T13:53:29.906Z,24.67
2018-11-21T13:55:57.158Z,26.40
2018-11-21T13:58:24.388Z,24.00
2018-11-21T14:00:51.349Z,23.83
2018-11-21T14:03:18.311Z,22.67
2018-11-21T14:05:45.268Z,24.50
2018-11-21T14:08:12.290Z,25.60
2018-11-21T14:10:39.252Z,26.57
2018-11-21T14:13:06.214Z,24.60
2018-11-21T14:15:33.185Z,24.40
2018-11-21T14:18:00.122Z,22.70
2018-11-21T14:20:27.078Z,24.10
2018-11-21T14:22:54.051Z,25.70
2018-11-21T14:25:21.027Z,27.00
2018-11-21T14:27:47.997Z,27.13
2018-11-21T14:30:15.655Z,30.03
2018-11-21T14:32:43.336Z,27.63
2018-11-21T14:35:11.676Z,24.30
2018-11-21T14:37:38.766Z,25.93
2018-11-21T14:40:08.947Z,26.83
2018-11-21T14:42:35.912Z,27.70
2018-11-21T14:45:03.555Z,27.00
2018-11-21T14:47:30.590Z,23.27
2018-11-21T14:49:58.873Z,26.80
2018-11-21T14:52:25.838Z,26.70
2018-11-21T14:54:52.856Z,29.27
2018-11-21T14:57:19.811Z,26.10
2018-11-21T14:59:46.783Z,25.17
2018-11-21T15:02:13.818Z,25.83
2018-11-21T15:04:40.794Z,28.40
2018-11-21T15:07:07.834Z,25.77
2018-11-21T15:09:34.780Z,25.20
2018-11-21T15:12:01.850Z,28.67
2018-11-21T15:14:28.931Z,27.07
2018-11-21T15:16:55.902Z,25.57
2018-11-21T15:19:23.041Z,24.50
2018-11-21T15:21:50.341Z,25.23
2018-11-21T15:24:17.300Z,27.53
2018-11-21T15:26:44.695Z,25.47
2018-11-21T15:29:11.776Z,28.27
2018-11-21T15:31:39.351Z,26.90
2018-11-21T15:34:06.351Z,27.17
2018-11-21T15:36:33.653Z,24.47
2018-11-21T15:39:00.627Z,26.43
2018-11-21T15:41:27.599Z,24.20
2018-11-21T15:43:54.566Z,22.03
2018-11-21T15:46:21.847Z,24.90
2018-11-21T15:48:48.812Z,26.47
2018-11-21T15:51:15.796Z,26.53
2018-11-21T15:53:42.749Z,28.07
2018-11-21T15:56:09.732Z,26.20
2018-11-21T15:58:37.046Z,28.37
2018-11-21T16:01:04.382Z,28.93
2018-11-21T16:03:31.360Z,32.20
2018-11-21T16:05:58.316Z,28.07
2018-11-21T16:08:25.304Z,28.73
2018-11-21T16:10:52.291Z,29.10
2018-11-21T16:13:19.286Z,30.27
2018-11-21T16:15:48.186Z,28.57
2018-11-21T16:18:16.090Z,30.90
2018-11-21T16:20:43.037Z,25.00
2018-11-21T16:23:09.999Z,29.30
2018-11-21T16:25:36.960Z,27.77
2018-11-21T16:28:04.352Z,24.33
2018-11-21T16:30:31.341Z,28.90
2018-11-21T16:32:58.587Z,28.40
2018-11-21T16:35:25.819Z,28.73
2018-11-21T16:37:53.304Z,33.07
2018-11-21T16:40:22.338Z,27.50
2018-11-21T16:42:49.997Z,28.73
2018-11-21T16:45:18.694Z,25.77
2018-11-21T16:47:45.995Z,25.63
2018-11-21T16:50:15.026Z,25.03
2018-11-21T16:52:42.335Z,24.93
2018-11-21T16:55:11.192Z,25.03
2018-11-21T16:57:38.134Z,22.87
2018-11-21T17:00:08.160Z,25.47
2018-11-21T17:02:35.427Z,24.80
2018-11-21T17:05:02.410Z,26.53
2018-11-21T17:07:29.770Z,26.67
2018-11-21T17:09:56.708Z,29.40
2018-11-21T17:12:23.993Z,24.80
2018-11-21T17:14:50.965Z,27.10
2018-11-21T17:17:17.910Z,26.37
2018-11-21T17:19:44.916Z,28.43
2018-11-21T17:22:11.899Z,24.80
2018-11-21T17:24:38.891Z,25.70
2018-11-21T17:27:05.839Z,26.13
2018-11-21T17:29:32.809Z,25.53
2018-11-21T17:31:59.784Z,24.00
2018-11-21T17:34:27.078Z,29.90
2018-11-21T17:36:54.041Z,31.50
2018-11-21T17:39:21.345Z,27.77
2018-11-21T17:41:48.312Z,26.37
2018-11-21T17:44:15.323Z,27.83
2018-11-21T17:46:42.322Z,28.17
2018-11-21T17:49:09.299Z,29.30
2018-11-21T17:51:36.615Z,25.27
2018-11-21T17:54:04.291Z,25.77
2018-11-21T17:56:31.916Z,25.70
2018-11-21T17:58:58.871Z,24.67
2018-11-21T18:01:25.867Z,24.03
2018-11-21T18:03:52.877Z,25.03
2018-11-21T18:06:19.879Z,24.70
2018-11-21T18:08:46.995Z,25.10
2018-11-21T18:11:13.955Z,23.30
2018-11-21T18:13:40.944Z,26.40
2018-11-21T18:16:07.934Z,25.60
2018-11-21T18:18:34.906Z,24.77
2018-11-21T18:21:01.896Z,25.53
2018-11-21T18:23:28.892Z,24.00
2018-11-21T18:25:55.846Z,24.73
2018-11-21T18:28:22.826Z,26.70
2018-11-21T18:30:49.937Z,23.93
2018-11-21T18:33:17.260Z,26.07
2018-11-21T18:35:44.120Z,24.13
2018-11-21T18:38:11.347Z,26.43
2018-11-21T18:40:38.225Z,22.70
2018-11-21T18:43:05.131Z,24.47
2018-11-21T18:45:34.747Z,22.57
2018-11-21T18:48:01.962Z,23.23
2018-11-21T18:50:28.986Z,23.27
2018-11-21T18:52:56.967Z,23.27
2018-11-21T18:55:26.355Z,26.77
2018-11-21T18:58:20.512Z,24.03
2018-11-21T19:00:49.362Z,22.37
2018-11-21T19:03:16.798Z,25.37
2018-11-21T19:05:43.241Z,26.37
2018-11-21T19:08:10.149Z,23.97
2018-11-21T19:10:37.061Z,22.93
2018-11-21T19:13:10.388Z,23.73
2018-11-21T19:15:37.555Z,24.67
2018-11-21T19:18:04.995Z,22.60
2018-11-21T19:20:31.999Z,23.40
2018-11-21T19:22:59.250Z,24.37
2018-11-21T19:25:26.496Z,23.93
2018-11-21T19:27:53.406Z,23.40
2018-11-21T19:30:20.495Z,22.50
2018-11-21T19:32:47.393Z,23.47
2018-11-21T19:35:14.322Z,25.27
2018-11-21T19:37:41.228Z,24.67
2018-11-21T19:40:09.906Z,24.93
2018-11-21T19:42:37.541Z,22.90
2018-11-21T19:45:06.955Z,23.17
2018-11-21T19:47:33.940Z,23.37
2018-11-21T19:50:00.909Z,21.47
2018-11-21T19:52:30.602Z,23.07
2018-11-21T19:54:57.526Z,23.17
2018-11-21T19:57:24.416Z,22.53
2018-11-21T19:59:51.339Z,23.13
2018-11-21T20:02:18.256Z,22.90
2018-11-21T20:04:45.165Z,22.73
2018-11-21T20:07:12.097Z,23.17
2018-11-21T20:09:39.026Z,22.17
2018-11-21T20:12:05.928Z,24.33
2018-11-21T20:14:32.882Z,23.70
2018-11-21T20:17:00.133Z,25.20
2018-11-21T20:19:27.052Z,25.97
2018-11-21T20:21:53.975Z,31.53
2018-11-21T20:24:20.878Z,26.63
2018-11-21T20:26:47.978Z,25.60
2018-11-21T20:29:14.910Z,27.57
2018-11-21T20:31:41.805Z,29.03
2018-11-21T20:34:08.723Z,27.47
2018-11-21T20:36:35.661Z,26.87
2018-11-21T20:39:04.445Z,31.80
2018-11-21T20:41:31.358Z,29.83
2018-11-21T20:43:58.547Z,31.00
2018-11-21T20:46:25.799Z,32.93
2018-11-21T20:48:52.734Z,37.33
2018-11-21T20:51:19.994Z,34.07
2018-11-21T20:53:47.240Z,30.87
2018-11-21T20:56:14.154Z,32.43
2018-11-21T20:58:41.060Z,27.63
2018-11-21T21:01:08.026Z,31.10
2018-11-21T21:03:34.968Z,34.33
2018-11-21T21:06:01.942Z,36.60
2018-11-21T21:08:28.875Z,34.43
2018-11-21T21:10:58.245Z,30.77
2018-11-21T21:13:25.571Z,33.20
2018-11-21T21:15:52.519Z,36.20
2018-11-21T21:18:19.408Z,31.10
2018-11-21T21:20:46.640Z,34.63
2018-11-21T21:23:13.569Z,34.63
2018-11-21T21:25:40.486Z,33.17
2018-11-21T21:28:07.392Z,30.17
2018-11-21T21:30:34.322Z,30.77
2018-11-21T21:33:01.403Z,30.97
2018-11-21T21:35:29.683Z,27.97
2018-11-21T21:37:56.616Z,30.07
2018-11-21T21:40:23.579Z,29.03
2018-11-21T21:42:50.742Z,26.37
2018-11-21T21:45:19.200Z,30.00
2018-11-21T21:47:46.117Z,27.50
2018-11-21T21:50:14.022Z,29.67
2018-11-21T21:52:40.952Z,28.00
2018-11-21T21:55:08.753Z,27.57
2018-11-21T21:57:36.385Z,26.20
2018-11-21T22:00:10.807Z,25.17
2018-11-21T22:02:38.013Z,26.50
2018-11-21T22:05:06.765Z,27.03
2018-11-21T22:07:33.776Z,27.20
2018-11-21T22:10:00.689Z,25.00
